Terminal Aerodrome Forecast
Issued by NWS Sterling, VA

Home | Current Version | Previous Version | Text Only | Print | Product List | Glossary On
Versions: 1 2 3 4 5 6 7 8 9 10 11 12 13 14 15 16 17 18 19 20 21 22 23 24 25 26
000
FTUS41 KLWX 191720
TAFMRB
TAF
KMRB 191720Z 1918/2018 29004KT P6SM BKN060
     FM192200 29004KT P6SM FEW080
     FM201400 18005KT P6SM SCT140=

USA.gov is the U.S. government's official web portal to all federal, state and local government web resources and services.